createdAt,value
2018-04-14T00:00:09.999Z,12.40
2018-04-14T00:01:10.195Z,12.36
2018-04-14T00:02:10.378Z,12.35
2018-04-14T00:03:10.548Z,12.36
2018-04-14T00:04:10.729Z,12.28
2018-04-14T00:05:10.908Z,12.28
2018-04-14T00:06:11.083Z,12.24
2018-04-14T00:07:11.264Z,12.25
2018-04-14T00:08:11.445Z,12.28
2018-04-14T00:09:11.637Z,12.24
2018-04-14T00:10:11.813Z,12.27
2018-04-14T00:11:11.984Z,12.28
2018-04-14T00:12:12.161Z,12.22
2018-04-14T00:13:12.338Z,12.09
2018-04-14T00:14:12.522Z,12.07
2018-04-14T00:15:12.708Z,12.15
2018-04-14T00:16:12.886Z,12.02
2018-04-14T00:17:13.056Z,12.07
2018-04-14T00:18:13.235Z,12.10
2018-04-14T00:19:13.406Z,12.20
2018-04-14T00:20:13.601Z,12.12
2018-04-14T00:21:13.797Z,12.22
2018-04-14T00:22:13.988Z,12.25
2018-04-14T00:23:14.180Z,12.27
2018-04-14T00:24:14.359Z,12.29
2018-04-14T00:25:14.541Z,12.32
2018-04-14T00:26:14.719Z,12.27
2018-04-14T00:27:14.901Z,12.29
2018-04-14T00:28:15.073Z,12.28
2018-04-14T00:29:15.272Z,12.18
2018-04-14T00:30:15.456Z,12.22
2018-04-14T00:31:15.636Z,12.13
2018-04-14T00:32:15.809Z,12.21
2018-04-14T00:33:15.986Z,12.21
2018-04-14T00:34:16.159Z,12.32
2018-04-14T00:35:16.341Z,12.32
2018-04-14T00:36:16.516Z,12.27
2018-04-14T00:37:16.680Z,12.28
2018-04-14T00:38:16.859Z,12.37
2018-04-14T00:39:17.033Z,12.37
2018-04-14T00:40:17.212Z,12.39
2018-04-14T00:41:17.377Z,12.43
2018-04-14T00:42:17.555Z,12.31
2018-04-14T00:43:17.726Z,12.36
2018-04-14T00:44:17.904Z,12.37
2018-04-14T00:45:18.086Z,12.35
2018-04-14T00:46:18.264Z,12.31
2018-04-14T00:47:18.442Z,12.40
2018-04-14T00:48:18.624Z,12.36
2018-04-14T00:49:18.797Z,12.31
2018-04-14T00:50:18.977Z,12.40
2018-04-14T00:51:19.155Z,12.37
2018-04-14T00:52:19.341Z,12.27
2018-04-14T00:53:19.519Z,12.32
2018-04-14T00:54:19.699Z,12.31
2018-04-14T00:55:19.877Z,12.32
2018-04-14T00:56:20.053Z,12.28
2018-04-14T00:57:20.222Z,12.31
2018-04-14T00:58:20.402Z,12.27
2018-04-14T00:59:20.588Z,12.36
2018-04-14T01:00:20.772Z,12.21
2018-04-14T01:01:20.940Z,12.29
2018-04-14T01:02:21.120Z,12.29
2018-04-14T01:03:21.298Z,12.20
2018-04-14T01:04:21.476Z,12.25
2018-04-14T01:05:21.654Z,12.32
2018-04-14T01:06:21.827Z,12.22
2018-04-14T01:07:22.007Z,12.24
2018-04-14T01:08:22.190Z,12.22
2018-04-14T01:09:22.368Z,12.27
2018-04-14T01:10:22.543Z,12.24
2018-04-14T01:11:22.728Z,12.32
2018-04-14T01:12:22.904Z,12.35
2018-04-14T01:13:23.073Z,12.39
2018-04-14T01:14:23.265Z,12.29
2018-04-14T01:15:23.439Z,12.21
2018-04-14T01:16:23.615Z,12.18
2018-04-14T01:17:23.789Z,12.18
2018-04-14T01:18:23.971Z,12.10
2018-04-14T01:19:24.145Z,12.07
2018-04-14T01:20:24.313Z,12.12
2018-04-14T01:21:24.487Z,12.09
2018-04-14T01:22:24.661Z,12.15
2018-04-14T01:23:24.839Z,12.17
2018-04-14T01:24:25.017Z,12.13
2018-04-14T01:25:25.190Z,12.15
2018-04-14T01:26:25.367Z,12.13
2018-04-14T01:27:25.548Z,12.15
2018-04-14T01:28:25.716Z,12.07
2018-04-14T01:29:25.888Z,12.06
2018-04-14T01:30:26.067Z,12.13
2018-04-14T01:31:26.236Z,12.06
2018-04-14T01:32:26.446Z,12.17
2018-04-14T01:33:26.598Z,12.09
2018-04-14T01:34:26.772Z,12.06
2018-04-14T01:35:26.949Z,12.02
2018-04-14T01:36:27.126Z,12.04
2018-04-14T01:37:27.300Z,12.04
2018-04-14T01:38:27.465Z,12.03
2018-04-14T01:39:27.648Z,12.06
2018-04-14T01:40:27.824Z,12.03
2018-04-14T01:41:28.001Z,11.95
2018-04-14T01:42:28.171Z,12.04
2018-04-14T01:43:28.352Z,12.02
2018-04-14T01:44:28.533Z,11.99
2018-04-14T01:45:28.707Z,12.03
2018-04-14T01:46:28.882Z,12.06
2018-04-14T01:47:29.058Z,12.07
2018-04-14T01:48:29.244Z,12.12
2018-04-14T01:49:29.423Z,12.10
2018-04-14T01:50:29.606Z,12.04
2018-04-14T01:51:29.777Z,12.03
2018-04-14T01:52:29.946Z,12.02
2018-04-14T01:53:30.120Z,12.13
2018-04-14T01:54:30.295Z,12.03
2018-04-14T01:55:30.470Z,12.04
2018-04-14T01:56:30.649Z,12.03
2018-04-14T01:57:30.826Z,11.97
2018-04-14T01:58:31.003Z,12.06
2018-04-14T01:59:31.178Z,12.02
2018-04-14T02:00:31.360Z,11.97
2018-04-14T02:01:31.533Z,12.03
2018-04-14T02:02:31.711Z,11.94
2018-04-14T02:03:31.890Z,11.99
2018-04-14T02:04:32.066Z,11.91
2018-04-14T02:05:32.236Z,11.87
2018-04-14T02:06:32.410Z,11.84
2018-04-14T02:07:32.587Z,11.75
2018-04-14T02:08:32.758Z,11.87
2018-04-14T02:09:32.932Z,11.83
2018-04-14T02:10:33.106Z,11.83
2018-04-14T02:11:33.288Z,11.80
2018-04-14T02:12:33.473Z,11.73
2018-04-14T02:13:33.642Z,11.72
2018-04-14T02:14:33.813Z,11.63
2018-04-14T02:15:33.991Z,11.59
2018-04-14T02:16:34.161Z,11.62
2018-04-14T02:17:34.331Z,11.59
2018-04-14T02:18:34.509Z,11.50
2018-04-14T02:19:34.678Z,11.52
2018-04-14T02:20:34.855Z,11.43
2018-04-14T02:21:35.034Z,11.41
2018-04-14T02:22:35.207Z,11.35
2018-04-14T02:23:35.387Z,11.30
2018-04-14T02:24:35.566Z,11.27
2018-04-14T02:25:35.746Z,11.30
2018-04-14T02:26:35.928Z,11.29
2018-04-14T02:27:36.101Z,11.25
2018-04-14T02:28:36.275Z,11.18
2018-04-14T02:29:36.443Z,11.27
2018-04-14T02:30:36.643Z,11.08
2018-04-14T02:31:36.798Z,11.10
2018-04-14T02:32:36.966Z,11.11
2018-04-14T02:33:37.146Z,11.19
2018-04-14T02:34:37.320Z,11.08
2018-04-14T02:35:37.493Z,11.08
2018-04-14T02:36:37.671Z,11.11
2018-04-14T02:37:37.857Z,11.11
2018-04-14T02:38:38.037Z,11.02
2018-04-14T02:39:38.215Z,11.00
2018-04-14T02:40:38.400Z,11.08
2018-04-14T02:41:38.571Z,11.04
2018-04-14T02:42:38.741Z,11.05
2018-04-14T02:43:38.925Z,11.04
2018-04-14T02:44:39.094Z,11.04
2018-04-14T02:45:39.268Z,10.92
2018-04-14T02:46:39.439Z,10.97
2018-04-14T02:47:39.613Z,10.93
2018-04-14T02:48:39.785Z,10.92
2018-04-14T02:49:39.956Z,10.89
2018-04-14T02:50:40.140Z,10.79
2018-04-14T02:51:40.327Z,10.84
2018-04-14T02:52:40.502Z,10.79
2018-04-14T02:53:40.680Z,10.79
2018-04-14T02:54:40.859Z,10.68
2018-04-14T02:55:41.039Z,10.63
2018-04-14T02:56:41.205Z,10.57
2018-04-14T02:57:41.395Z,10.67
2018-04-14T02:58:41.571Z,10.56
2018-04-14T02:59:41.753Z,10.53
2018-04-14T03:00:41.929Z,10.54
2018-04-14T03:01:42.111Z,10.54
2018-04-14T03:02:42.286Z,10.56
2018-04-14T03:03:42.468Z,10.51
2018-04-14T03:04:42.636Z,10.44
2018-04-14T03:05:42.815Z,10.49
2018-04-14T03:06:42.996Z,10.46
2018-04-14T03:07:43.174Z,10.54
2018-04-14T03:08:43.346Z,10.35
2018-04-14T03:09:43.530Z,10.33
2018-04-14T03:10:43.709Z,10.33
2018-04-14T03:11:43.880Z,10.40
2018-04-14T03:12:44.052Z,10.42
2018-04-14T03:13:44.227Z,10.31
2018-04-14T03:14:44.404Z,10.31
2018-04-14T03:15:44.587Z,10.31
2018-04-14T03:16:44.762Z,10.26
2018-04-14T03:17:44.938Z,10.26
2018-04-14T03:18:45.118Z,10.25
2018-04-14T03:19:45.285Z,10.33
2018-04-14T03:20:45.455Z,10.30
2018-04-14T03:21:45.632Z,10.33
2018-04-14T03:22:45.806Z,10.30
2018-04-14T03:23:45.984Z,10.28
2018-04-14T03:24:46.162Z,10.16
2018-04-14T03:25:46.332Z,10.22
2018-04-14T03:26:46.513Z,10.20
2018-04-14T03:27:46.693Z,10.16
2018-04-14T03:28:46.862Z,10.15
2018-04-14T03:29:47.037Z,10.15
2018-04-14T03:30:47.205Z,10.10
2018-04-14T03:31:47.380Z,10.15
2018-04-14T03:32:47.553Z,10.15
2018-04-14T03:33:47.731Z,10.09
2018-04-14T03:34:47.907Z,10.23
2018-04-14T03:35:48.083Z,10.19
2018-04-14T03:36:48.256Z,10.17
2018-04-14T03:37:48.435Z,10.17
2018-04-14T03:38:48.602Z,10.25
2018-04-14T03:39:48.770Z,10.20
2018-04-14T03:40:48.951Z,10.22
2018-04-14T03:41:49.120Z,10.17
2018-04-14T03:42:49.294Z,10.20
2018-04-14T03:43:49.465Z,10.22
2018-04-14T03:44:49.636Z,10.16
2018-04-14T03:45:49.827Z,10.22
2018-04-14T03:46:49.991Z,10.22
2018-04-14T03:47:50.166Z,10.04
2018-04-14T03:48:50.351Z,10.13
2018-04-14T03:49:50.526Z,10.16
2018-04-14T03:50:50.702Z,10.20
2018-04-14T03:51:50.879Z,10.15
2018-04-14T03:52:51.053Z,10.31
2018-04-14T03:53:51.227Z,10.28
2018-04-14T03:54:51.422Z,10.26
2018-04-14T03:55:51.595Z,10.41
2018-04-14T03:56:51.773Z,10.33
2018-04-14T03:57:51.949Z,10.37
2018-04-14T03:58:52.125Z,10.37
2018-04-14T03:59:52.301Z,10.40
2018-04-14T04:00:52.474Z,10.33
2018-04-14T04:01:52.645Z,10.33
2018-04-14T04:02:52.827Z,10.30
2018-04-14T04:03:53.013Z,10.40
2018-04-14T04:04:53.186Z,10.44
2018-04-14T04:05:53.366Z,10.46
2018-04-14T04:06:53.539Z,10.49
2018-04-14T04:07:53.716Z,10.57
2018-04-14T04:08:53.898Z,10.49
2018-04-14T04:09:54.064Z,10.54
2018-04-14T04:10:54.239Z,10.53
2018-04-14T04:11:54.416Z,10.59
2018-04-14T04:12:54.600Z,10.64
2018-04-14T04:13:54.765Z,10.71
2018-04-14T04:14:54.941Z,10.78
2018-04-14T04:15:55.113Z,10.69
2018-04-14T04:16:55.293Z,10.75
2018-04-14T04:17:55.463Z,10.79
2018-04-14T04:18:55.629Z,10.86
2018-04-14T04:19:55.814Z,10.79
2018-04-14T04:20:55.985Z,10.84
2018-04-14T04:21:56.163Z,10.86
2018-04-14T04:22:56.332Z,10.90
2018-04-14T04:23:56.510Z,10.84
2018-04-14T04:24:56.679Z,10.79
2018-04-14T04:25:56.848Z,10.69
2018-04-14T04:26:57.025Z,10.79
2018-04-14T04:27:57.197Z,10.71
2018-04-14T04:28:57.412Z,10.67
2018-04-14T04:29:57.548Z,10.81
2018-04-14T04:30:57.720Z,10.86
2018-04-14T04:31:57.897Z,10.86
2018-04-14T04:32:58.064Z,10.78
2018-04-14T04:33:58.242Z,10.81
2018-04-14T04:34:58.422Z,10.75
2018-04-14T04:35:58.612Z,10.89
2018-04-14T04:36:58.798Z,10.94
2018-04-14T04:37:58.956Z,10.86
2018-04-14T04:38:59.133Z,10.89
2018-04-14T04:39:59.294Z,10.82
2018-04-14T04:40:59.478Z,10.87
2018-04-14T04:41:59.658Z,10.97
2018-04-14T04:42:59.841Z,10.93
2018-04-14T04:44:00.027Z,10.97
2018-04-14T04:45:00.203Z,11.04
2018-04-14T04:46:00.400Z,11.05
2018-04-14T04:47:00.626Z,11.08
2018-04-14T04:48:00.682Z,11.15
2018-04-14T04:49:00.914Z,11.11
2018-04-14T04:50:01.077Z,11.14
2018-04-14T04:51:01.168Z,11.18
2018-04-14T04:52:01.342Z,11.27
2018-04-14T04:53:01.543Z,11.15
2018-04-14T04:54:01.743Z,11.14
2018-04-14T04:55:01.929Z,11.22
2018-04-14T04:56:02.108Z,11.14
2018-04-14T04:57:02.288Z,11.11
2018-04-14T04:58:02.465Z,11.14
2018-04-14T04:59:02.636Z,11.02
2018-04-14T05:00:02.819Z,11.04
2018-04-14T05:01:02.990Z,10.99
2018-04-14T05:02:03.173Z,11.00
2018-04-14T05:03:03.355Z,11.10
2018-04-14T05:04:03.527Z,11.05
2018-04-14T05:05:03.714Z,11.05
2018-04-14T05:06:03.879Z,11.19
2018-04-14T05:07:04.051Z,11.07
2018-04-14T05:08:04.231Z,11.15
2018-04-14T05:09:04.419Z,11.17
2018-04-14T05:10:04.595Z,11.10
2018-04-14T05:11:04.780Z,11.12
2018-04-14T05:12:05.425Z,10.99
2018-04-14T05:13:05.088Z,11.00
2018-04-14T05:14:05.262Z,10.93
2018-04-14T05:15:05.451Z,10.76
2018-04-14T05:16:05.627Z,10.84
2018-04-14T05:17:05.821Z,10.79
2018-04-14T05:18:05.991Z,10.69
2018-04-14T05:19:06.162Z,10.72
2018-04-14T05:20:06.343Z,10.75
2018-04-14T05:21:06.527Z,10.81
2018-04-14T05:22:06.699Z,10.75
2018-04-14T05:23:06.877Z,10.84
2018-04-14T05:24:07.062Z,10.78
2018-04-14T05:25:07.229Z,10.75
2018-04-14T05:26:07.405Z,10.63
2018-04-14T05:27:07.593Z,10.42
2018-04-14T05:28:07.763Z,10.49
2018-04-14T05:29:07.935Z,10.53
2018-04-14T05:30:08.124Z,10.35
2018-04-14T05:31:08.293Z,10.38
2018-04-14T05:32:08.472Z,10.40
2018-04-14T05:33:08.649Z,10.46
2018-04-14T05:34:08.840Z,10.38
2018-04-14T05:35:09.054Z,10.53
2018-04-14T05:36:09.245Z,10.54
2018-04-14T05:37:09.399Z,10.53
2018-04-14T05:38:09.577Z,10.68
2018-04-14T05:39:09.771Z,10.64
2018-04-14T05:40:09.949Z,10.74
2018-04-14T05:41:10.122Z,10.84
2018-04-14T05:42:10.302Z,10.92
2018-04-14T05:43:10.494Z,11.00
2018-04-14T05:44:10.679Z,10.99
2018-04-14T05:45:10.859Z,11.00
2018-04-14T05:46:11.053Z,10.96
2018-04-14T05:47:11.634Z,10.97
2018-04-14T05:48:12.411Z,10.96
2018-04-14T05:49:11.582Z,10.86
2018-04-14T05:50:11.753Z,11.04
2018-04-14T05:51:11.929Z,11.29
2018-04-14T05:52:12.711Z,11.17
2018-04-14T05:53:13.399Z,11.29
2018-04-14T05:54:12.532Z,11.43
2018-04-14T05:55:12.696Z,11.52
2018-04-14T05:56:12.856Z,11.55
2018-04-14T05:57:13.025Z,11.57
2018-04-14T05:58:13.270Z,11.65
2018-04-14T05:59:13.405Z,11.70
2018-04-14T06:00:13.663Z,11.86
2018-04-14T06:01:13.794Z,11.81
2018-04-14T06:02:13.976Z,11.83
2018-04-14T06:03:14.153Z,11.91
2018-04-14T06:04:14.333Z,11.91
2018-04-14T06:05:14.513Z,11.83
2018-04-14T06:06:15.046Z,11.83
2018-04-14T06:07:14.847Z,11.87
2018-04-14T06:08:15.037Z,12.07
2018-04-14T06:09:15.269Z,12.28
2018-04-14T06:10:15.397Z,12.64
2018-04-14T06:11:15.579Z,13.05
2018-04-14T06:12:15.766Z,13.05
2018-04-14T06:13:15.961Z,13.18
2018-04-14T06:14:16.133Z,13.19
2018-04-14T06:15:16.320Z,13.33
2018-04-14T06:16:16.504Z,13.90
2018-04-14T06:17:16.683Z,14.08
2018-04-14T06:18:16.863Z,14.36
2018-04-14T06:19:17.051Z,14.30
2018-04-14T06:20:17.236Z,14.33
2018-04-14T06:21:17.415Z,14.48
2018-04-14T06:22:17.672Z,14.47
2018-04-14T06:23:17.763Z,15.04
2018-04-14T06:24:17.945Z,15.36
2018-04-14T06:25:18.124Z,15.55
2018-04-14T06:26:18.307Z,15.76
2018-04-14T06:27:18.492Z,16.12
2018-04-14T06:28:18.677Z,16.28
2018-04-14T06:29:18.868Z,16.33
2018-04-14T06:30:19.050Z,16.99
2018-04-14T06:31:19.246Z,17.11
2018-04-14T06:32:19.431Z,17.19
2018-04-14T06:33:19.632Z,17.71
2018-04-14T06:34:19.831Z,18.13
2018-04-14T06:35:20.026Z,18.18
2018-04-14T06:36:20.212Z,18.81
2018-04-14T06:37:20.400Z,19.34
2018-04-14T06:38:20.594Z,19.66
2018-04-14T06:39:20.787Z,20.13
2018-04-14T06:40:20.969Z,20.19
2018-04-14T06:41:21.147Z,20.09
2018-04-14T06:42:21.345Z,20.43
2018-04-14T06:43:21.524Z,19.66
2018-04-14T06:44:21.721Z,19.73
2018-04-14T06:45:21.917Z,19.81
2018-04-14T06:46:22.105Z,20.84
2018-04-14T06:47:22.283Z,21.72
2018-04-14T06:48:22.468Z,22.15
2018-04-14T06:49:22.663Z,22.65
2018-04-14T06:50:22.842Z,23.06
2018-04-14T06:51:23.030Z,23.56
2018-04-14T06:52:23.474Z,23.96
2018-04-14T06:53:23.366Z,23.08
2018-04-14T06:54:23.543Z,23.27
2018-04-14T06:55:23.745Z,22.32
2018-04-14T06:56:23.925Z,23.08
2018-04-14T06:57:24.978Z,23.44
2018-04-14T06:58:24.371Z,23.91
2018-04-14T06:59:24.591Z,23.74
2018-04-14T07:00:25.095Z,23.36
2018-04-14T07:01:24.830Z,23.83
2018-04-14T07:02:25.195Z,24.53
2018-04-14T07:03:25.403Z,24.76
2018-04-14T07:04:25.625Z,24.16
2018-04-14T07:05:25.528Z,24.32
2018-04-14T07:06:25.740Z,24.93
2018-04-14T07:07:25.951Z,25.38
2018-04-14T07:08:27.160Z,25.41
2018-04-14T07:09:26.539Z,25.50
2018-04-14T07:10:26.419Z,26.05
2018-04-14T07:11:26.812Z,26.29
2018-04-14T07:12:26.793Z,26.90
2018-04-14T07:13:27.034Z,26.73
2018-04-14T07:14:27.194Z,25.87
2018-04-14T07:15:27.387Z,25.84
2018-04-14T07:16:27.577Z,26.33
2018-04-14T07:17:27.935Z,25.99
2018-04-14T07:18:28.370Z,26.56
2018-04-14T07:19:28.106Z,26.90
2018-04-14T07:20:28.298Z,27.42
2018-04-14T07:21:28.502Z,27.10
2018-04-14T07:22:28.704Z,26.31
2018-04-14T07:23:28.911Z,25.96
2018-04-14T07:24:29.110Z,25.78
2018-04-14T07:25:29.326Z,26.25
2018-04-14T07:26:29.531Z,26.90
2018-04-14T07:27:29.750Z,26.80
2018-04-14T07:28:30.017Z,26.90
2018-04-14T07:29:30.181Z,26.19
2018-04-14T07:30:30.246Z,26.10
2018-04-14T07:31:30.460Z,25.54
2018-04-14T07:32:30.719Z,26.56
2018-04-14T07:33:30.826Z,27.00
2018-04-14T07:34:31.024Z,27.12
2018-04-14T07:35:31.220Z,26.74
2018-04-14T07:36:33.268Z,26.88
2018-04-14T07:37:31.711Z,25.51
2018-04-14T07:38:31.909Z,24.58
2018-04-14T07:39:31.991Z,24.99
2018-04-14T07:40:32.373Z,24.63
2018-04-14T07:41:32.335Z,24.58
2018-04-14T07:42:32.532Z,25.62
2018-04-14T07:43:33.055Z,25.17
2018-04-14T07:44:32.914Z,25.26
2018-04-14T07:45:33.111Z,25.63
2018-04-14T07:46:33.310Z,26.18
2018-04-14T07:47:33.540Z,26.02
2018-04-14T07:48:33.725Z,26.37
2018-04-14T07:49:33.950Z,25.75
2018-04-14T07:50:34.153Z,24.38
2018-04-14T07:51:34.482Z,25.35
2018-04-14T07:52:34.549Z,24.43
2018-04-14T07:53:34.788Z,23.93
2018-04-14T07:54:35.045Z,24.11
2018-04-14T07:55:35.197Z,25.01
2018-04-14T07:56:35.388Z,24.21
2018-04-14T07:57:35.606Z,24.08
2018-04-14T07:58:35.781Z,24.33
2018-04-14T07:59:35.969Z,25.83
2018-04-14T08:00:36.165Z,26.66
2018-04-14T08:01:36.359Z,27.08
2018-04-14T08:02:36.556Z,25.58
2018-04-14T08:03:36.759Z,26.18
2018-04-14T08:04:37.176Z,25.07
2018-04-14T08:05:37.134Z,25.18
2018-04-14T08:06:37.319Z,25.26
2018-04-14T08:07:37.514Z,25.87
2018-04-14T08:08:37.695Z,26.51
2018-04-14T08:09:37.884Z,26.36
2018-04-14T08:10:38.108Z,26.71
2018-04-14T08:11:38.321Z,26.70
2018-04-14T08:12:38.464Z,27.07
2018-04-14T08:13:38.706Z,26.70
2018-04-14T08:14:38.870Z,25.60
2018-04-14T08:15:39.094Z,25.47
2018-04-14T08:16:39.275Z,26.85
2018-04-14T08:17:39.467Z,27.33
2018-04-14T08:18:39.673Z,27.96
2018-04-14T08:19:39.865Z,28.00
2018-04-14T08:20:40.087Z,28.93
2018-04-14T08:21:40.275Z,28.51
2018-04-14T08:22:40.467Z,29.29
2018-04-14T08:23:40.666Z,30.47
2018-04-14T08:24:40.877Z,30.54
2018-04-14T08:25:41.053Z,30.72
2018-04-14T08:26:41.255Z,29.45
2018-04-14T08:27:41.447Z,29.76
2018-04-14T08:28:41.697Z,29.29
2018-04-14T08:29:41.753Z,28.67
2018-04-14T08:30:41.950Z,29.04
2018-04-14T08:31:42.140Z,28.14
2018-04-14T08:32:42.372Z,27.12
2018-04-14T08:33:42.530Z,27.02
2018-04-14T08:34:42.734Z,26.40
2018-04-14T08:35:42.924Z,27.68
2018-04-14T08:36:43.119Z,27.35
2018-04-14T08:37:43.311Z,27.68
2018-04-14T08:38:43.599Z,27.78
2018-04-14T08:39:43.667Z,26.29
2018-04-14T08:40:43.860Z,26.07
2018-04-14T08:41:44.056Z,27.15
2018-04-14T08:42:44.259Z,26.26
2018-04-14T08:43:44.443Z,27.08
2018-04-14T08:44:44.690Z,25.99
2018-04-14T08:45:44.845Z,26.63
2018-04-14T08:46:45.041Z,27.59
2018-04-14T08:47:45.236Z,28.12
2018-04-14T08:48:45.429Z,28.41
2018-04-14T08:49:48.107Z,27.49
2018-04-14T08:50:45.811Z,28.02
2018-04-14T08:51:46.006Z,29.07
2018-04-14T08:52:46.194Z,29.39
2018-04-14T08:53:46.422Z,29.01
2018-04-14T08:54:46.624Z,28.48
2018-04-14T08:55:46.897Z,28.47
2018-04-14T08:56:46.961Z,27.67
2018-04-14T08:57:47.142Z,27.92
2018-04-14T08:58:47.332Z,27.44
2018-04-14T08:59:47.523Z,26.45
2018-04-14T09:00:47.705Z,26.23
2018-04-14T09:01:47.897Z,26.56
2018-04-14T09:02:48.104Z,26.45
2018-04-14T09:03:48.601Z,27.20
2018-04-14T09:04:48.754Z,27.49
2018-04-14T09:05:48.923Z,27.54
2018-04-14T09:06:49.098Z,27.65
2018-04-14T09:07:49.100Z,27.55
2018-04-14T09:08:49.115Z,28.39
2018-04-14T09:09:49.314Z,28.42
2018-04-14T09:10:49.508Z,28.44
2018-04-14T09:11:49.704Z,28.86
2018-04-14T09:12:49.907Z,28.88
2018-04-14T09:13:50.104Z,28.01
2018-04-14T09:14:50.315Z,28.70
2018-04-14T09:15:50.619Z,28.38
2018-04-14T09:16:50.733Z,28.26
2018-04-14T09:17:50.938Z,29.07
2018-04-14T09:18:51.128Z,30.47
2018-04-14T09:19:51.320Z,30.35
2018-04-14T09:20:51.509Z,30.80
2018-04-14T09:21:51.703Z,30.55
2018-04-14T09:22:51.889Z,27.30
2018-04-14T09:23:52.091Z,26.28
2018-04-14T09:24:52.325Z,25.87
2018-04-14T09:25:52.412Z,26.03
2018-04-14T09:26:52.618Z,25.70
2018-04-14T09:27:52.802Z,26.16
2018-04-14T09:28:52.991Z,26.56
2018-04-14T09:29:53.183Z,27.98
2018-04-14T09:30:53.379Z,29.01
2018-04-14T09:31:53.578Z,28.84
2018-04-14T09:32:53.763Z,28.56
2018-04-14T09:33:53.965Z,27.02
2018-04-14T09:34:54.199Z,26.60
2018-04-14T09:35:54.450Z,27.33
2018-04-14T09:36:54.511Z,26.84
2018-04-14T09:37:54.938Z,26.63
2018-04-14T09:38:55.767Z,26.73
2018-04-14T09:39:55.042Z,26.83
2018-04-14T09:40:55.239Z,26.29
2018-04-14T09:41:55.432Z,25.48
2018-04-14T09:42:55.716Z,24.53
2018-04-14T09:43:55.759Z,24.51
2018-04-14T09:44:55.994Z,25.08
2018-04-14T09:45:56.065Z,24.84
2018-04-14T09:46:56.260Z,25.14
2018-04-14T09:47:56.448Z,24.65
2018-04-14T09:48:56.639Z,24.06
2018-04-14T09:49:56.850Z,24.65
2018-04-14T09:50:57.074Z,25.40
2018-04-14T09:51:57.236Z,26.29
2018-04-14T09:52:57.428Z,26.31
2018-04-14T09:53:57.611Z,25.99
2018-04-14T09:54:57.843Z,24.11
2018-04-14T09:55:58.034Z,24.84
2018-04-14T09:56:58.234Z,25.85
2018-04-14T09:57:58.427Z,26.56
2018-04-14T09:58:58.612Z,26.13
2018-04-14T09:59:58.806Z,25.62
2018-04-14T10:00:58.996Z,25.72
2018-04-14T10:01:59.250Z,26.52
2018-04-14T10:02:59.330Z,27.29
2018-04-14T10:03:59.500Z,26.68
2018-04-14T10:04:59.691Z,26.75
2018-04-14T10:05:59.885Z,26.25
2018-04-14T10:07:00.073Z,26.31
2018-04-14T10:08:00.483Z,26.36
2018-04-14T10:09:00.683Z,26.68
2018-04-14T10:10:00.550Z,25.59
2018-04-14T10:11:00.739Z,24.81
2018-04-14T10:12:00.929Z,25.04
2018-04-14T10:13:01.111Z,25.16
2018-04-14T10:14:01.301Z,25.08
2018-04-14T10:15:01.506Z,25.81
2018-04-14T10:16:01.691Z,26.38
2018-04-14T10:17:01.877Z,24.24
2018-04-14T10:18:02.065Z,23.74
2018-04-14T10:19:02.254Z,23.63
2018-04-14T10:20:02.441Z,23.81
2018-04-14T10:21:02.632Z,23.95
2018-04-14T10:22:02.818Z,22.87
2018-04-14T10:23:03.018Z,22.81
2018-04-14T10:24:03.203Z,22.30
2018-04-14T10:25:03.390Z,22.28
2018-04-14T10:26:03.574Z,22.13
2018-04-14T10:27:03.782Z,21.83
2018-04-14T10:28:03.961Z,21.72
2018-04-14T10:29:04.159Z,21.61
2018-04-14T10:30:04.353Z,21.42
2018-04-14T10:31:04.546Z,20.88
2018-04-14T10:32:04.736Z,21.24
2018-04-14T10:33:04.916Z,21.48
2018-04-14T10:34:05.099Z,21.69
2018-04-14T10:35:05.286Z,22.59
2018-04-14T10:36:05.734Z,23.24
2018-04-14T10:37:05.820Z,23.55
2018-04-14T10:38:06.020Z,23.71
2018-04-14T10:39:06.118Z,23.96
2018-04-14T10:40:06.127Z,23.95
2018-04-14T10:41:06.272Z,23.74
2018-04-14T10:42:06.453Z,23.88
2018-04-14T10:43:06.642Z,24.05
2018-04-14T10:44:06.834Z,23.93
2018-04-14T10:45:07.018Z,23.78
2018-04-14T10:46:07.204Z,24.05
2018-04-14T10:47:07.393Z,23.95
2018-04-14T10:48:07.606Z,23.43
2018-04-14T10:49:07.809Z,23.40
2018-04-14T10:50:08.021Z,23.93
2018-04-14T10:51:08.410Z,24.02
2018-04-14T10:52:08.713Z,24.58
2018-04-14T10:53:08.543Z,24.92
2018-04-14T10:54:08.729Z,25.08
2018-04-14T10:55:08.912Z,24.98
2018-04-14T10:56:09.098Z,24.48
2018-04-14T10:57:09.288Z,24.10
2018-04-14T10:58:09.476Z,23.84
2018-04-14T10:59:09.668Z,23.65
2018-04-14T11:00:09.851Z,23.47
2018-04-14T11:01:10.039Z,23.25
2018-04-14T11:02:10.241Z,23.41
2018-04-14T11:03:10.422Z,23.40
2018-04-14T11:04:10.609Z,23.69
2018-04-14T11:05:10.800Z,23.69
2018-04-14T11:06:11.039Z,23.50
2018-04-14T11:07:11.089Z,23.50
2018-04-14T11:08:11.292Z,23.55
2018-04-14T11:09:11.476Z,23.21
2018-04-14T11:10:11.658Z,22.84
2018-04-14T11:11:11.853Z,22.20
2018-04-14T11:12:12.039Z,21.82
2018-04-14T11:13:12.219Z,21.36
2018-04-14T11:14:12.408Z,21.09
2018-04-14T11:15:12.649Z,21.06
2018-04-14T11:16:12.786Z,21.09
2018-04-14T11:17:12.976Z,21.24
2018-04-14T11:18:13.187Z,21.29
2018-04-14T11:19:13.371Z,21.07
2018-04-14T11:20:13.560Z,20.66
2018-04-14T11:21:15.885Z,20.78
2018-04-14T11:22:13.914Z,20.77
2018-04-14T11:23:14.098Z,21.05
2018-04-14T11:24:14.283Z,20.96
2018-04-14T11:25:14.463Z,20.97
2018-04-14T11:26:14.652Z,21.07
2018-04-14T11:27:14.872Z,21.21
2018-04-14T11:28:15.065Z,21.29
2018-04-14T11:29:15.241Z,21.60
2018-04-14T11:30:15.439Z,21.82
2018-04-14T11:31:15.641Z,22.02
2018-04-14T11:32:15.821Z,22.02
2018-04-14T11:33:16.018Z,22.13
2018-04-14T11:34:16.200Z,22.00
2018-04-14T11:35:16.388Z,21.83
2018-04-14T11:36:16.585Z,21.54
2018-04-14T11:37:16.763Z,21.30
2018-04-14T11:38:16.945Z,21.33
2018-04-14T11:39:17.131Z,21.22
2018-04-14T11:40:17.318Z,21.27
2018-04-14T11:41:17.532Z,21.32
2018-04-14T11:42:17.706Z,21.52
2018-04-14T11:43:17.945Z,21.73
2018-04-14T11:44:18.975Z,21.77
2018-04-14T11:45:18.331Z,21.91
2018-04-14T11:46:18.509Z,21.99
2018-04-14T11:47:18.691Z,21.70
2018-04-14T11:48:18.879Z,21.58
2018-04-14T11:49:19.057Z,21.22
2018-04-14T11:50:19.239Z,21.05
2018-04-14T11:51:19.427Z,21.03
2018-04-14T11:52:19.939Z,21.03
2018-04-14T11:53:19.741Z,21.15
2018-04-14T11:54:19.924Z,21.36
2018-04-14T11:55:20.154Z,21.93
2018-04-14T11:56:20.344Z,22.06
2018-04-14T11:57:20.634Z,22.07
2018-04-14T11:58:20.695Z,21.99
2018-04-14T11:59:20.880Z,21.99
2018-04-14T12:00:21.075Z,21.88
2018-04-14T12:01:21.267Z,21.80
2018-04-14T12:02:21.461Z,21.51
2018-04-14T12:03:21.632Z,21.54
2018-04-14T12:04:21.811Z,21.45
2018-04-14T12:05:21.995Z,21.48
2018-04-14T12:06:22.179Z,21.77
2018-04-14T12:07:22.367Z,21.77
2018-04-14T12:08:22.550Z,21.75
2018-04-14T12:09:22.732Z,21.75
2018-04-14T12:10:22.938Z,21.82
2018-04-14T12:11:23.123Z,21.82
2018-04-14T12:12:23.311Z,21.80
2018-04-14T12:13:23.501Z,21.61
2018-04-14T12:14:23.677Z,21.55
2018-04-14T12:15:23.869Z,21.51
2018-04-14T12:16:24.050Z,21.39
2018-04-14T12:17:24.240Z,20.95
2018-04-14T12:18:24.418Z,21.03
2018-04-14T12:19:24.602Z,20.87
2018-04-14T12:20:24.792Z,20.95
2018-04-14T12:21:24.967Z,20.87
2018-04-14T12:22:25.153Z,21.09
2018-04-14T12:23:25.352Z,21.22
2018-04-14T12:24:25.526Z,21.36
2018-04-14T12:25:25.711Z,21.09
2018-04-14T12:26:25.897Z,21.06
2018-04-14T12:27:26.090Z,21.27
2018-04-14T12:28:26.291Z,21.30
2018-04-14T12:29:26.455Z,21.30
2018-04-14T12:30:26.635Z,21.33
2018-04-14T12:31:26.821Z,21.52
2018-04-14T12:32:26.998Z,21.62
2018-04-14T12:33:27.190Z,21.66
2018-04-14T12:34:27.390Z,21.55
2018-04-14T12:35:27.579Z,21.64
2018-04-14T12:36:27.763Z,21.43
2018-04-14T12:37:27.951Z,21.57
2018-04-14T12:38:28.133Z,21.36
2018-04-14T12:39:28.366Z,21.48
2018-04-14T12:40:28.537Z,21.58
2018-04-14T12:41:28.723Z,21.70
2018-04-14T12:42:28.913Z,21.60
2018-04-14T12:43:29.126Z,21.52
2018-04-14T12:44:29.314Z,21.58
2018-04-14T12:45:29.498Z,21.35
2018-04-14T12:46:29.689Z,21.02
2018-04-14T12:47:29.865Z,21.02
2018-04-14T12:48:30.050Z,20.90
2018-04-14T12:49:30.233Z,21.02
2018-04-14T12:50:30.434Z,20.93
2018-04-14T12:51:30.622Z,20.96
2018-04-14T12:52:30.810Z,21.03
2018-04-14T12:53:30.991Z,21.22
2018-04-14T12:54:31.214Z,21.42